sensor_id;sensor_type;location;lat;lon;timestamp;P1;durP1;ratioP1;P2;durP2;ratioP2
68284;SDS011;55114;52.052;5.238;2022-11-20T00:01:20;17.77;;;6.57;;
68284;SDS011;55114;52.052;5.238;2022-11-20T00:03:48;15.68;;;6.43;;
68284;SDS011;55114;52.052;5.238;2022-11-20T00:06:15;18.97;;;7.03;;
68284;SDS011;55114;52.052;5.238;2022-11-20T00:08:43;15.27;;;6.55;;
68284;SDS011;55114;52.052;5.238;2022-11-20T00:11:11;16.75;;;6.22;;
68284;SDS011;55114;52.052;5.238;2022-11-20T00:13:42;18.13;;;6.43;;
68284;SDS011;55114;52.052;5.238;2022-11-20T00:16:10;17.10;;;6.28;;
68284;SDS011;55114;52.052;5.238;2022-11-20T00:18:38;19.13;;;6.60;;
68284;SDS011;55114;52.052;5.238;2022-11-20T00:21:07;17.23;;;6.80;;
68284;SDS011;55114;52.052;5.238;2022-11-20T00:23:35;17.73;;;6.90;;
68284;SDS011;55114;52.052;5.238;2022-11-20T00:26:06;16.98;;;6.63;;
68284;SDS011;55114;52.052;5.238;2022-11-20T00:28:34;19.33;;;6.97;;
68284;SDS011;55114;52.052;5.238;2022-11-20T00:31:05;18.43;;;6.60;;
68284;SDS011;55114;52.052;5.238;2022-11-20T00:33:33;14.95;;;6.03;;
68284;SDS011;55114;52.052;5.238;2022-11-20T00:36:04;16.25;;;6.25;;
68284;SDS011;55114;52.052;5.238;2022-11-20T00:38:32;18.13;;;6.68;;
68284;SDS011;55114;52.052;5.238;2022-11-20T00:41:00;16.08;;;6.45;;
68284;SDS011;55114;52.052;5.238;2022-11-20T00:43:27;16.63;;;6.90;;
68284;SDS011;55114;52.052;5.238;2022-11-20T00:48:25;18.13;;;6.85;;
68284;SDS011;55114;52.052;5.238;2022-11-20T00:50:52;18.55;;;7.57;;
68284;SDS011;55114;52.052;5.238;2022-11-20T00:53:20;18.13;;;7.03;;
68284;SDS011;55114;52.052;5.238;2022-11-20T00:55:58;18.30;;;7.37;;
68284;SDS011;55114;52.052;5.238;2022-11-20T00:58:28;16.67;;;6.47;;
68284;SDS011;55114;52.052;5.238;2022-11-20T01:00:59;15.55;;;6.53;;
68284;SDS011;55114;52.052;5.238;2022-11-20T01:03:30;17.98;;;7.03;;
68284;SDS011;55114;52.052;5.238;2022-11-20T01:06:09;16.65;;;6.55;;
68284;SDS011;55114;52.052;5.238;2022-11-20T01:08:37;18.23;;;6.67;;
68284;SDS011;55114;52.052;5.238;2022-11-20T01:11:06;16.08;;;5.93;;
68284;SDS011;55114;52.052;5.238;2022-11-20T01:13:34;18.38;;;6.75;;
68284;SDS011;55114;52.052;5.238;2022-11-20T01:16:06;18.65;;;6.80;;
68284;SDS011;55114;52.052;5.238;2022-11-20T01:18:34;16.98;;;6.45;;
68284;SDS011;55114;52.052;5.238;2022-11-20T01:21:02;16.47;;;5.80;;
68284;SDS011;55114;52.052;5.238;2022-11-20T01:23:33;16.98;;;6.32;;
68284;SDS011;55114;52.052;5.238;2022-11-20T01:26:01;16.98;;;6.38;;
68284;SDS011;55114;52.052;5.238;2022-11-20T01:28:29;16.35;;;6.25;;
68284;SDS011;55114;52.052;5.238;2022-11-20T01:30:56;16.95;;;6.20;;
68284;SDS011;55114;52.052;5.238;2022-11-20T01:33:24;16.37;;;6.13;;
68284;SDS011;55114;52.052;5.238;2022-11-20T01:35:52;15.55;;;6.25;;
68284;SDS011;55114;52.052;5.238;2022-11-20T01:38:19;16.02;;;6.40;;
68284;SDS011;55114;52.052;5.238;2022-11-20T01:40:54;14.50;;;6.18;;
68284;SDS011;55114;52.052;5.238;2022-11-20T01:43:22;18.35;;;6.40;;
68284;SDS011;55114;52.052;5.238;2022-11-20T01:48:38;15.20;;;6.13;;
68284;SDS011;55114;52.052;5.238;2022-11-20T01:51:06;17.63;;;6.97;;
68284;SDS011;55114;52.052;5.238;2022-11-20T01:53:38;17.10;;;6.55;;
68284;SDS011;55114;52.052;5.238;2022-11-20T01:56:07;14.95;;;6.30;;
68284;SDS011;55114;52.052;5.238;2022-11-20T01:58:35;17.77;;;6.57;;
68284;SDS011;55114;52.052;5.238;2022-11-20T02:01:06;16.20;;;6.82;;
68284;SDS011;55114;52.052;5.238;2022-11-20T02:03:33;19.30;;;6.45;;
68284;SDS011;55114;52.052;5.238;2022-11-20T02:08:28;17.90;;;6.25;;
68284;SDS011;55114;52.052;5.238;2022-11-20T02:10:56;16.37;;;6.37;;
68284;SDS011;55114;52.052;5.238;2022-11-20T02:13:23;16.02;;;6.18;;
68284;SDS011;55114;52.052;5.238;2022-11-20T02:16:10;16.90;;;6.28;;
68284;SDS011;55114;52.052;5.238;2022-11-20T02:18:38;14.80;;;5.55;;
68284;SDS011;55114;52.052;5.238;2022-11-20T02:21:19;15.10;;;5.85;;
68284;SDS011;55114;52.052;5.238;2022-11-20T02:24:04;15.23;;;5.57;;
68284;SDS011;55114;52.052;5.238;2022-11-20T02:26:34;17.70;;;5.90;;
68284;SDS011;55114;52.052;5.238;2022-11-20T02:29:01;15.48;;;6.00;;
68284;SDS011;55114;52.052;5.238;2022-11-20T02:31:33;16.25;;;6.00;;
68284;SDS011;55114;52.052;5.238;2022-11-20T02:34:02;14.35;;;5.60;;
68284;SDS011;55114;52.052;5.238;2022-11-20T02:36:29;16.93;;;6.07;;
68284;SDS011;55114;52.052;5.238;2022-11-20T02:38:59;16.33;;;5.50;;
68284;SDS011;55114;52.052;5.238;2022-11-20T02:41:36;16.27;;;5.82;;
68284;SDS011;55114;52.052;5.238;2022-11-20T02:44:04;13.52;;;5.78;;
68284;SDS011;55114;52.052;5.238;2022-11-20T02:46:32;14.70;;;5.65;;
68284;SDS011;55114;52.052;5.238;2022-11-20T02:49:00;15.50;;;5.40;;
68284;SDS011;55114;52.052;5.238;2022-11-20T02:51:31;15.95;;;5.85;;
68284;SDS011;55114;52.052;5.238;2022-11-20T02:53:58;15.02;;;5.32;;
68284;SDS011;55114;52.052;5.238;2022-11-20T02:56:25;15.07;;;5.15;;
68284;SDS011;55114;52.052;5.238;2022-11-20T02:58:52;14.80;;;5.43;;
68284;SDS011;55114;52.052;5.238;2022-11-20T03:01:20;19.17;;;6.27;;
68284;SDS011;55114;52.052;5.238;2022-11-20T03:03:47;16.70;;;5.82;;
68284;SDS011;55114;52.052;5.238;2022-11-20T03:06:15;14.65;;;5.82;;
68284;SDS011;55114;52.052;5.238;2022-11-20T03:08:43;14.60;;;5.60;;
68284;SDS011;55114;52.052;5.238;2022-11-20T03:11:10;15.13;;;5.63;;
68284;SDS011;55114;52.052;5.238;2022-11-20T03:13:37;14.27;;;5.57;;
68284;SDS011;55114;52.052;5.238;2022-11-20T03:16:06;13.00;;;5.53;;
68284;SDS011;55114;52.052;5.238;2022-11-20T03:18:33;16.45;;;5.88;;
68284;SDS011;55114;52.052;5.238;2022-11-20T03:21:00;15.25;;;5.55;;
68284;SDS011;55114;52.052;5.238;2022-11-20T03:23:28;13.48;;;5.28;;
68284;SDS011;55114;52.052;5.238;2022-11-20T03:26:06;15.00;;;5.27;;
68284;SDS011;55114;52.052;5.238;2022-11-20T03:28:33;16.30;;;5.53;;
68284;SDS011;55114;52.052;5.238;2022-11-20T03:31:10;16.08;;;5.90;;
68284;SDS011;55114;52.052;5.238;2022-11-20T03:33:39;13.82;;;5.28;;
68284;SDS011;55114;52.052;5.238;2022-11-20T03:36:08;16.17;;;5.35;;
68284;SDS011;55114;52.052;5.238;2022-11-20T03:38:36;16.00;;;5.33;;
68284;SDS011;55114;52.052;5.238;2022-11-20T03:41:08;17.15;;;5.53;;
68284;SDS011;55114;52.052;5.238;2022-11-20T03:43:36;13.93;;;5.32;;
68284;SDS011;55114;52.052;5.238;2022-11-20T03:46:03;14.82;;;5.88;;
68284;SDS011;55114;52.052;5.238;2022-11-20T03:48:31;16.10;;;5.68;;
68284;SDS011;55114;52.052;5.238;2022-11-20T03:51:17;14.60;;;5.57;;
68284;SDS011;55114;52.052;5.238;2022-11-20T03:53:45;14.80;;;5.75;;
68284;SDS011;55114;52.052;5.238;2022-11-20T03:56:14;16.20;;;5.38;;
68284;SDS011;55114;52.052;5.238;2022-11-20T03:58:41;16.27;;;5.18;;
68284;SDS011;55114;52.052;5.238;2022-11-20T04:01:12;15.82;;;5.65;;
68284;SDS011;55114;52.052;5.238;2022-11-20T04:03:40;16.13;;;5.43;;
68284;SDS011;55114;52.052;5.238;2022-11-20T04:06:09;15.98;;;5.30;;
68284;SDS011;55114;52.052;5.238;2022-11-20T04:08:46;14.95;;;5.93;;
68284;SDS011;55114;52.052;5.238;2022-11-20T04:11:26;18.90;;;5.28;;
68284;SDS011;55114;52.052;5.238;2022-11-20T04:13:57;14.27;;;5.57;;
68284;SDS011;55114;52.052;5.238;2022-11-20T04:16:34;28.23;;;9.60;;
68284;SDS011;55114;52.052;5.238;2022-11-20T04:19:02;17.23;;;6.20;;
68284;SDS011;55114;52.052;5.238;2022-11-20T04:21:30;15.43;;;5.70;;
68284;SDS011;55114;52.052;5.238;2022-11-20T04:24:07;19.05;;;6.07;;
68284;SDS011;55114;52.052;5.238;2022-11-20T04:26:36;19.30;;;6.75;;
68284;SDS011;55114;52.052;5.238;2022-11-20T04:29:03;20.43;;;6.90;;
68284;SDS011;55114;52.052;5.238;2022-11-20T04:31:31;14.95;;;5.47;;
68284;SDS011;55114;52.052;5.238;2022-11-20T04:34:00;12.98;;;5.03;;
68284;SDS011;55114;52.052;5.238;2022-11-20T04:36:27;12.93;;;4.78;;
68284;SDS011;55114;52.052;5.238;2022-11-20T04:38:58;14.32;;;5.20;;
68284;SDS011;55114;52.052;5.238;2022-11-20T04:41:28;15.80;;;5.63;;
68284;SDS011;55114;52.052;5.238;2022-11-20T04:44:01;15.38;;;5.88;;
68284;SDS011;55114;52.052;5.238;2022-11-20T04:46:30;15.85;;;5.60;;
68284;SDS011;55114;52.052;5.238;2022-11-20T04:48:58;18.65;;;6.10;;
68284;SDS011;55114;52.052;5.238;2022-11-20T04:51:26;16.55;;;5.85;;
68284;SDS011;55114;52.052;5.238;2022-11-20T04:53:53;14.60;;;5.53;;
68284;SDS011;55114;52.052;5.238;2022-11-20T04:56:21;14.18;;;5.43;;
68284;SDS011;55114;52.052;5.238;2022-11-20T04:58:48;15.05;;;5.30;;
68284;SDS011;55114;52.052;5.238;2022-11-20T05:01:25;13.25;;;5.32;;
68284;SDS011;55114;52.052;5.238;2022-11-20T05:03:52;15.95;;;5.72;;
68284;SDS011;55114;52.052;5.238;2022-11-20T05:06:20;17.07;;;5.70;;
68284;SDS011;55114;52.052;5.238;2022-11-20T05:08:47;15.43;;;6.28;;
68284;SDS011;55114;52.052;5.238;2022-11-20T05:11:16;14.07;;;5.65;;
68284;SDS011;55114;52.052;5.238;2022-11-20T05:13:44;16.70;;;5.50;;
68284;SDS011;55114;52.052;5.238;2022-11-20T05:16:18;14.63;;;5.05;;
68284;SDS011;55114;52.052;5.238;2022-11-20T05:18:46;14.73;;;5.10;;
68284;SDS011;55114;52.052;5.238;2022-11-20T05:21:14;13.63;;;5.00;;
68284;SDS011;55114;52.052;5.238;2022-11-20T05:23:41;12.95;;;5.28;;
68284;SDS011;55114;52.052;5.238;2022-11-20T05:26:13;14.00;;;4.97;;
68284;SDS011;55114;52.052;5.238;2022-11-20T05:28:40;14.15;;;5.20;;
68284;SDS011;55114;52.052;5.238;2022-11-20T05:31:09;15.77;;;5.17;;
68284;SDS011;55114;52.052;5.238;2022-11-20T05:33:36;16.70;;;5.90;;
68284;SDS011;55114;52.052;5.238;2022-11-20T05:36:04;13.98;;;5.05;;
68284;SDS011;55114;52.052;5.238;2022-11-20T05:38:31;15.77;;;5.15;;
68284;SDS011;55114;52.052;5.238;2022-11-20T05:43:38;18.50;;;5.73;;
68284;SDS011;55114;52.052;5.238;2022-11-20T05:46:06;17.15;;;6.00;;
68284;SDS011;55114;52.052;5.238;2022-11-20T05:48:34;13.90;;;5.20;;
68284;SDS011;55114;52.052;5.238;2022-11-20T05:51:02;15.63;;;5.68;;
68284;SDS011;55114;52.052;5.238;2022-11-20T05:53:31;14.15;;;5.18;;
68284;SDS011;55114;52.052;5.238;2022-11-20T05:55:59;14.13;;;5.27;;
68284;SDS011;55114;52.052;5.238;2022-11-20T05:58:27;14.68;;;5.45;;
68284;SDS011;55114;52.052;5.238;2022-11-20T06:01:02;13.07;;;4.85;;
68284;SDS011;55114;52.052;5.238;2022-11-20T06:03:29;15.45;;;5.65;;
68284;SDS011;55114;52.052;5.238;2022-11-20T06:05:58;14.45;;;5.07;;
68284;SDS011;55114;52.052;5.238;2022-11-20T06:08:25;13.40;;;5.30;;
68284;SDS011;55114;52.052;5.238;2022-11-20T06:10:52;17.33;;;6.15;;
68284;SDS011;55114;52.052;5.238;2022-11-20T06:13:19;14.63;;;5.70;;
68284;SDS011;55114;52.052;5.238;2022-11-20T06:15:50;14.85;;;5.28;;
68284;SDS011;55114;52.052;5.238;2022-11-20T06:18:17;13.00;;;5.65;;
68284;SDS011;55114;52.052;5.238;2022-11-20T06:20:45;17.87;;;6.30;;
68284;SDS011;55114;52.052;5.238;2022-11-20T06:23:13;17.60;;;6.07;;
68284;SDS011;55114;52.052;5.238;2022-11-20T06:25:41;16.30;;;5.93;;
68284;SDS011;55114;52.052;5.238;2022-11-20T06:28:08;14.18;;;5.63;;
68284;SDS011;55114;52.052;5.238;2022-11-20T06:30:36;15.50;;;5.55;;
68284;SDS011;55114;52.052;5.238;2022-11-20T06:33:03;22.77;;;7.17;;
68284;SDS011;55114;52.052;5.238;2022-11-20T06:35:31;19.83;;;7.43;;
68284;SDS011;55114;52.052;5.238;2022-11-20T06:37:58;17.67;;;6.50;;
68284;SDS011;55114;52.052;5.238;2022-11-20T06:40:25;15.05;;;5.78;;
68284;SDS011;55114;52.052;5.238;2022-11-20T06:42:53;19.10;;;6.28;;
68284;SDS011;55114;52.052;5.238;2022-11-20T06:45:21;24.70;;;8.53;;
68284;SDS011;55114;52.052;5.238;2022-11-20T06:47:48;18.65;;;6.88;;
68284;SDS011;55114;52.052;5.238;2022-11-20T06:50:16;17.63;;;6.55;;
68284;SDS011;55114;52.052;5.238;2022-11-20T06:52:43;18.08;;;6.63;;
68284;SDS011;55114;52.052;5.238;2022-11-20T06:55:11;17.05;;;6.80;;
68284;SDS011;55114;52.052;5.238;2022-11-20T06:57:38;19.20;;;6.87;;
68284;SDS011;55114;52.052;5.238;2022-11-20T07:00:06;17.80;;;6.60;;
68284;SDS011;55114;52.052;5.238;2022-11-20T07:02:33;24.90;;;8.32;;
68284;SDS011;55114;52.052;5.238;2022-11-20T07:05:01;24.77;;;7.45;;
68284;SDS011;55114;52.052;5.238;2022-11-20T07:07:28;19.77;;;6.80;;
68284;SDS011;55114;52.052;5.238;2022-11-20T07:09:56;18.00;;;5.97;;
68284;SDS011;55114;52.052;5.238;2022-11-20T07:12:23;17.17;;;6.32;;
68284;SDS011;55114;52.052;5.238;2022-11-20T07:14:53;16.00;;;5.88;;
68284;SDS011;55114;52.052;5.238;2022-11-20T07:17:21;18.13;;;6.25;;
68284;SDS011;55114;52.052;5.238;2022-11-20T07:19:48;16.52;;;5.85;;
68284;SDS011;55114;52.052;5.238;2022-11-20T07:22:16;16.07;;;5.50;;
68284;SDS011;55114;52.052;5.238;2022-11-20T07:24:43;17.27;;;6.10;;
68284;SDS011;55114;52.052;5.238;2022-11-20T07:27:11;17.13;;;6.53;;
68284;SDS011;55114;52.052;5.238;2022-11-20T07:29:38;17.23;;;6.13;;
68284;SDS011;55114;52.052;5.238;2022-11-20T07:32:09;14.40;;;5.75;;
68284;SDS011;55114;52.052;5.238;2022-11-20T07:34:36;16.50;;;5.73;;
68284;SDS011;55114;52.052;5.238;2022-11-20T07:37:03;15.80;;;5.90;;
68284;SDS011;55114;52.052;5.238;2022-11-20T07:39:35;16.98;;;6.10;;
68284;SDS011;55114;52.052;5.238;2022-11-20T07:42:02;18.95;;;6.30;;
68284;SDS011;55114;52.052;5.238;2022-11-20T07:44:29;17.67;;;6.18;;
68284;SDS011;55114;52.052;5.238;2022-11-20T07:46:56;20.27;;;6.23;;
68284;SDS011;55114;52.052;5.238;2022-11-20T07:49:24;18.77;;;6.40;;
68284;SDS011;55114;52.052;5.238;2022-11-20T07:51:51;19.75;;;6.50;;
68284;SDS011;55114;52.052;5.238;2022-11-20T07:54:29;18.27;;;6.57;;
68284;SDS011;55114;52.052;5.238;2022-11-20T07:56:56;20.77;;;7.13;;
68284;SDS011;55114;52.052;5.238;2022-11-20T07:59:23;18.37;;;7.10;;
68284;SDS011;55114;52.052;5.238;2022-11-20T08:01:50;20.55;;;6.88;;
68284;SDS011;55114;52.052;5.238;2022-11-20T08:04:18;19.00;;;7.57;;
68284;SDS011;55114;52.052;5.238;2022-11-20T08:06:45;18.80;;;5.97;;
68284;SDS011;55114;52.052;5.238;2022-11-20T08:09:12;21.25;;;8.00;;
68284;SDS011;55114;52.052;5.238;2022-11-20T08:11:40;18.93;;;7.07;;
68284;SDS011;55114;52.052;5.238;2022-11-20T08:14:26;17.73;;;6.75;;
68284;SDS011;55114;52.052;5.238;2022-11-20T08:16:53;19.17;;;7.82;;
68284;SDS011;55114;52.052;5.238;2022-11-20T08:19:20;21.38;;;7.75;;
68284;SDS011;55114;52.052;5.238;2022-11-20T08:21:48;18.40;;;7.60;;
68284;SDS011;55114;52.052;5.238;2022-11-20T08:24:15;20.10;;;7.87;;
68284;SDS011;55114;52.052;5.238;2022-11-20T08:26:42;19.23;;;7.38;;
68284;SDS011;55114;52.052;5.238;2022-11-20T08:29:10;22.05;;;7.40;;
68284;SDS011;55114;52.052;5.238;2022-11-20T08:31:37;18.48;;;7.78;;
68284;SDS011;55114;52.052;5.238;2022-11-20T08:34:04;22.73;;;8.18;;
68284;SDS011;55114;52.052;5.238;2022-11-20T08:36:35;24.23;;;8.63;;
68284;SDS011;55114;52.052;5.238;2022-11-20T08:39:03;20.23;;;8.48;;
68284;SDS011;55114;52.052;5.238;2022-11-20T08:41:30;21.85;;;8.10;;
68284;SDS011;55114;52.052;5.238;2022-11-20T08:44:00;21.23;;;8.45;;
68284;SDS011;55114;52.052;5.238;2022-11-20T08:46:30;20.98;;;8.57;;
68284;SDS011;55114;52.052;5.238;2022-11-20T08:48:59;20.57;;;8.30;;
68284;SDS011;55114;52.052;5.238;2022-11-20T08:51:26;24.35;;;8.98;;
68284;SDS011;55114;52.052;5.238;2022-11-20T08:53:53;21.02;;;8.60;;
68284;SDS011;55114;52.052;5.238;2022-11-20T08:56:21;22.23;;;9.05;;
68284;SDS011;55114;52.052;5.238;2022-11-20T08:58:49;23.92;;;9.07;;
68284;SDS011;55114;52.052;5.238;2022-11-20T09:01:36;24.37;;;9.10;;
68284;SDS011;55114;52.052;5.238;2022-11-20T09:04:06;24.70;;;9.40;;
68284;SDS011;55114;52.052;5.238;2022-11-20T09:06:33;22.00;;;8.93;;
68284;SDS011;55114;52.052;5.238;2022-11-20T09:09:01;24.27;;;9.55;;
68284;SDS011;55114;52.052;5.238;2022-11-20T09:11:32;23.92;;;9.27;;
68284;SDS011;55114;52.052;5.238;2022-11-20T09:13:59;23.77;;;9.57;;
68284;SDS011;55114;52.052;5.238;2022-11-20T09:16:28;22.63;;;9.80;;
68284;SDS011;55114;52.052;5.238;2022-11-20T09:18:55;23.80;;;9.75;;
68284;SDS011;55114;52.052;5.238;2022-11-20T09:21:42;24.48;;;9.35;;
68284;SDS011;55114;52.052;5.238;2022-11-20T09:24:10;20.40;;;8.70;;
68284;SDS011;55114;52.052;5.238;2022-11-20T09:26:37;23.00;;;9.13;;
68284;SDS011;55114;52.052;5.238;2022-11-20T09:29:04;25.67;;;9.75;;
68284;SDS011;55114;52.052;5.238;2022-11-20T09:31:32;21.88;;;9.30;;
68284;SDS011;55114;52.052;5.238;2022-11-20T09:33:59;22.05;;;9.60;;
68284;SDS011;55114;52.052;5.238;2022-11-20T09:36:26;22.95;;;9.63;;
68284;SDS011;55114;52.052;5.238;2022-11-20T09:38:54;22.63;;;9.23;;
68284;SDS011;55114;52.052;5.238;2022-11-20T09:44:18;23.45;;;9.43;;
68284;SDS011;55114;52.052;5.238;2022-11-20T09:52:56;21.57;;;8.83;;
68284;SDS011;55114;52.052;5.238;2022-11-20T09:55:01;26.13;;;10.13;;
68284;SDS011;55114;52.052;5.238;2022-11-20T09:57:32;25.77;;;10.85;;
68284;SDS011;55114;52.052;5.238;2022-11-20T10:00:02;21.98;;;10.10;;
68284;SDS011;55114;52.052;5.238;2022-11-20T10:07:30;22.73;;;9.25;;
68284;SDS011;55114;52.052;5.238;2022-11-20T10:09:58;25.38;;;10.05;;
68284;SDS011;55114;52.052;5.238;2022-11-20T10:30:43;23.27;;;10.03;;
68284;SDS011;55114;52.052;5.238;2022-11-20T10:33:17;23.05;;;9.88;;
68284;SDS011;55114;52.052;5.238;2022-11-20T10:35:50;26.85;;;10.75;;
68284;SDS011;55114;52.052;5.238;2022-11-20T10:38:29;26.23;;;10.73;;
68284;SDS011;55114;52.052;5.238;2022-11-20T10:40:59;25.15;;;10.98;;
68284;SDS011;55114;52.052;5.238;2022-11-20T10:43:46;25.10;;;10.77;;
68284;SDS011;55114;52.052;5.238;2022-11-20T10:46:22;27.45;;;10.90;;
68284;SDS011;55114;52.052;5.238;2022-11-20T10:48:49;27.17;;;11.98;;
68284;SDS011;55114;52.052;5.238;2022-11-20T10:56:47;29.00;;;12.23;;
68284;SDS011;55114;52.052;5.238;2022-11-20T10:59:27;29.45;;;12.18;;
68284;SDS011;55114;52.052;5.238;2022-11-20T11:01:58;24.92;;;10.98;;
68284;SDS011;55114;52.052;5.238;2022-11-20T11:06:58;26.65;;;11.27;;
68284;SDS011;55114;52.052;5.238;2022-11-20T11:09:32;25.20;;;11.43;;
68284;SDS011;55114;52.052;5.238;2022-11-20T11:12:00;29.48;;;12.18;;
68284;SDS011;55114;52.052;5.238;2022-11-20T11:14:41;26.35;;;11.85;;
68284;SDS011;55114;52.052;5.238;2022-11-20T11:17:17;28.83;;;12.40;;
68284;SDS011;55114;52.052;5.238;2022-11-20T11:19:45;27.33;;;12.05;;
68284;SDS011;55114;52.052;5.238;2022-11-20T11:22:16;25.97;;;11.67;;
68284;SDS011;55114;52.052;5.238;2022-11-20T11:24:51;28.42;;;11.73;;
68284;SDS011;55114;52.052;5.238;2022-11-20T11:27:18;27.92;;;12.48;;
68284;SDS011;55114;52.052;5.238;2022-11-20T11:29:46;30.48;;;12.25;;
68284;SDS011;55114;52.052;5.238;2022-11-20T11:32:20;28.35;;;11.00;;
68284;SDS011;55114;52.052;5.238;2022-11-20T11:35:04;31.33;;;12.70;;
68284;SDS011;55114;52.052;5.238;2022-11-20T11:37:36;28.48;;;12.40;;
68284;SDS011;55114;52.052;5.238;2022-11-20T11:40:04;35.42;;;13.70;;
68284;SDS011;55114;52.052;5.238;2022-11-20T11:42:54;30.27;;;12.23;;
68284;SDS011;55114;52.052;5.238;2022-11-20T11:45:23;30.42;;;12.57;;
68284;SDS011;55114;52.052;5.238;2022-11-20T11:47:51;33.50;;;13.47;;
68284;SDS011;55114;52.052;5.238;2022-11-20T11:50:22;34.90;;;14.75;;
68284;SDS011;55114;52.052;5.238;2022-11-20T11:55:22;33.47;;;13.63;;
68284;SDS011;55114;52.052;5.238;2022-11-20T11:58:11;32.83;;;13.55;;
68284;SDS011;55114;52.052;5.238;2022-11-20T12:00:45;29.43;;;12.30;;
68284;SDS011;55114;52.052;5.238;2022-11-20T12:03:58;35.88;;;14.50;;
68284;SDS011;55114;52.052;5.238;2022-11-20T12:06:11;38.60;;;15.07;;
68284;SDS011;55114;52.052;5.238;2022-11-20T12:13:39;37.43;;;14.83;;
68284;SDS011;55114;52.052;5.238;2022-11-20T12:16:10;40.88;;;14.98;;
68284;SDS011;55114;52.052;5.238;2022-11-20T12:18:39;40.47;;;14.20;;
68284;SDS011;55114;52.052;5.238;2022-11-20T12:26:57;37.07;;;15.23;;
68284;SDS011;55114;52.052;5.238;2022-11-20T12:31:59;44.40;;;16.35;;
68284;SDS011;55114;52.052;5.238;2022-11-20T12:37:16;38.25;;;15.15;;
68284;SDS011;55114;52.052;5.238;2022-11-20T12:39:50;43.20;;;15.73;;
68284;SDS011;55114;52.052;5.238;2022-11-20T12:48:17;40.55;;;14.00;;
68284;SDS011;55114;52.052;5.238;2022-11-20T12:53:51;46.80;;;15.93;;
68284;SDS011;55114;52.052;5.238;2022-11-20T13:01:56;42.15;;;15.50;;
68284;SDS011;55114;52.052;5.238;2022-11-20T13:07:02;41.83;;;15.00;;
68284;SDS011;55114;52.052;5.238;2022-11-20T13:09:30;42.45;;;15.82;;
68284;SDS011;55114;52.052;5.238;2022-11-20T13:14:37;39.95;;;15.27;;
68284;SDS011;55114;52.052;5.238;2022-11-20T13:19:53;41.03;;;15.07;;
68284;SDS011;55114;52.052;5.238;2022-11-20T13:22:25;40.15;;;15.60;;
68284;SDS011;55114;52.052;5.238;2022-11-20T13:24:52;39.65;;;15.07;;
68284;SDS011;55114;52.052;5.238;2022-11-20T13:27:23;40.38;;;15.38;;
68284;SDS011;55114;52.052;5.238;2022-11-20T13:32:49;40.93;;;14.47;;
68284;SDS011;55114;52.052;5.238;2022-11-20T13:35:35;41.50;;;15.35;;
68284;SDS011;55114;52.052;5.238;2022-11-20T13:38:40;39.05;;;14.68;;
68284;SDS011;55114;52.052;5.238;2022-11-20T13:40:59;39.80;;;14.90;;
68284;SDS011;55114;52.052;5.238;2022-11-20T13:43:51;42.95;;;16.13;;
68284;SDS011;55114;52.052;5.238;2022-11-20T13:46:19;37.87;;;15.10;;
68284;SDS011;55114;52.052;5.238;2022-11-20T13:48:51;39.83;;;15.73;;
68284;SDS011;55114;52.052;5.238;2022-11-20T13:56:48;44.20;;;15.75;;
68284;SDS011;55114;52.052;5.238;2022-11-20T14:02:19;42.33;;;15.85;;
68284;SDS011;55114;52.052;5.238;2022-11-20T14:04:49;43.38;;;16.10;;
68284;SDS011;55114;52.052;5.238;2022-11-20T14:07:18;44.70;;;15.85;;
68284;SDS011;55114;52.052;5.238;2022-11-20T14:09:51;42.90;;;16.13;;
68284;SDS011;55114;52.052;5.238;2022-11-20T14:12:20;47.90;;;17.10;;
68284;SDS011;55114;52.052;5.238;2022-11-20T14:14:54;51.13;;;17.58;;
68284;SDS011;55114;52.052;5.238;2022-11-20T14:17:29;58.72;;;18.65;;
68284;SDS011;55114;52.052;5.238;2022-11-20T14:19:58;54.63;;;18.88;;
68284;SDS011;55114;52.052;5.238;2022-11-20T14:22:26;53.80;;;18.30;;
68284;SDS011;55114;52.052;5.238;2022-11-20T14:25:06;50.10;;;17.37;;
68284;SDS011;55114;52.052;5.238;2022-11-20T14:27:35;49.67;;;17.00;;
68284;SDS011;55114;52.052;5.238;2022-11-20T14:30:03;50.65;;;17.48;;
68284;SDS011;55114;52.052;5.238;2022-11-20T14:32:30;47.08;;;16.50;;
68284;SDS011;55114;52.052;5.238;2022-11-20T14:35:01;51.67;;;16.52;;
68284;SDS011;55114;52.052;5.238;2022-11-20T14:37:30;50.57;;;16.63;;
68284;SDS011;55114;52.052;5.238;2022-11-20T14:40:01;53.58;;;18.30;;
68284;SDS011;55114;52.052;5.238;2022-11-20T14:42:29;51.97;;;16.48;;
68284;SDS011;55114;52.052;5.238;2022-11-20T14:45:00;51.08;;;17.13;;
68284;SDS011;55114;52.052;5.238;2022-11-20T14:47:29;52.72;;;17.52;;
68284;SDS011;55114;52.052;5.238;2022-11-20T14:49:56;50.80;;;17.23;;
68284;SDS011;55114;52.052;5.238;2022-11-20T14:52:25;51.15;;;17.02;;
68284;SDS011;55114;52.052;5.238;2022-11-20T14:54:54;54.92;;;17.67;;
68284;SDS011;55114;52.052;5.238;2022-11-20T14:57:22;57.95;;;17.98;;
68284;SDS011;55114;52.052;5.238;2022-11-20T14:59:50;51.53;;;17.63;;
68284;SDS011;55114;52.052;5.238;2022-11-20T15:02:28;51.93;;;17.67;;
68284;SDS011;55114;52.052;5.238;2022-11-20T15:04:57;50.05;;;16.45;;
68284;SDS011;55114;52.052;5.238;2022-11-20T15:07:26;52.38;;;16.92;;
68284;SDS011;55114;52.052;5.238;2022-11-20T15:10:05;56.35;;;17.60;;
68284;SDS011;55114;52.052;5.238;2022-11-20T15:12:36;49.10;;;17.05;;
68284;SDS011;55114;52.052;5.238;2022-11-20T15:15:04;47.87;;;16.17;;
68284;SDS011;55114;52.052;5.238;2022-11-20T15:17:32;48.03;;;15.60;;
68284;SDS011;55114;52.052;5.238;2022-11-20T15:20:04;49.35;;;17.58;;
68284;SDS011;55114;52.052;5.238;2022-11-20T15:22:37;40.80;;;14.48;;
68284;SDS011;55114;52.052;5.238;2022-11-20T15:25:11;46.28;;;16.77;;
68284;SDS011;55114;52.052;5.238;2022-11-20T15:27:38;49.83;;;15.33;;
68284;SDS011;55114;52.052;5.238;2022-11-20T15:30:12;48.17;;;17.05;;
68284;SDS011;55114;52.052;5.238;2022-11-20T15:32:43;45.80;;;15.98;;
68284;SDS011;55114;52.052;5.238;2022-11-20T15:35:10;40.00;;;13.98;;
68284;SDS011;55114;52.052;5.238;2022-11-20T15:37:38;43.45;;;15.07;;
68284;SDS011;55114;52.052;5.238;2022-11-20T15:40:06;41.63;;;15.33;;
68284;SDS011;55114;52.052;5.238;2022-11-20T15:42:34;38.03;;;14.60;;
68284;SDS011;55114;52.052;5.238;2022-11-20T15:45:02;40.55;;;15.40;;
68284;SDS011;55114;52.052;5.238;2022-11-20T15:47:31;37.65;;;14.70;;
68284;SDS011;55114;52.052;5.238;2022-11-20T15:49:59;42.20;;;16.58;;
68284;SDS011;55114;52.052;5.238;2022-11-20T15:52:26;43.50;;;15.60;;
68284;SDS011;55114;52.052;5.238;2022-11-20T15:55:09;37.95;;;14.52;;
68284;SDS011;55114;52.052;5.238;2022-11-20T15:57:36;43.95;;;15.80;;
68284;SDS011;55114;52.052;5.238;2022-11-20T16:00:03;44.15;;;16.85;;
68284;SDS011;55114;52.052;5.238;2022-11-20T16:02:34;46.88;;;16.58;;
68284;SDS011;55114;52.052;5.238;2022-11-20T16:05:03;43.10;;;15.33;;
68284;SDS011;55114;52.052;5.238;2022-11-20T16:07:31;45.70;;;18.02;;
68284;SDS011;55114;52.052;5.238;2022-11-20T16:09:58;39.80;;;15.52;;
68284;SDS011;55114;52.052;5.238;2022-11-20T16:12:26;49.28;;;16.33;;
68284;SDS011;55114;52.052;5.238;2022-11-20T16:15:12;51.10;;;16.23;;
68284;SDS011;55114;52.052;5.238;2022-11-20T16:18:02;43.57;;;15.27;;
68284;SDS011;55114;52.052;5.238;2022-11-20T16:20:29;38.38;;;13.88;;
68284;SDS011;55114;52.052;5.238;2022-11-20T16:22:56;43.33;;;15.15;;
68284;SDS011;55114;52.052;5.238;2022-11-20T16:25:24;45.85;;;15.35;;
68284;SDS011;55114;52.052;5.238;2022-11-20T16:27:51;41.05;;;15.68;;
68284;SDS011;55114;52.052;5.238;2022-11-20T16:30:18;44.53;;;16.73;;